Time;durP1;ratioP1;P1;durP2;ratioP2;P2;SDS_P1;SDS_P2;PMS_P1;PMS_P2;Temp;Humidity;BMP_temperature;BMP_pressure;BME280_temperature;BME280_humidity;BME280_pressure;Samples;Min_cycle;Max_cycle;Signal;HPM_P1;HPM_P2
2023/12/28 11:29:36;;;;;;;19.87;4.20;;;;;;;10.62;100.00;101070.03;5292754;27;20846;-71
2023/12/28 11:32:08;;;;;;;16.90;2.97;;;;;;;10.68;100.00;101074.09;5291989;28;20020;-70
2023/12/28 11:34:40;;;;;;;22.07;4.57;;;;;;;10.72;100.00;101065.13;5291742;28;20028;-71
2023/12/28 11:37:18;;;;;;;16.97;4.83;;;;;;;10.86;100.00;101066.94;5293108;28;20505;-71
2023/12/28 11:39:50;;;;;;;21.93;5.37;;;;;;;10.81;100.00;101071.59;5292843;28;20028;-70
2023/12/28 11:42:22;;;;;;;16.33;4.33;;;;;;;10.90;100.00;101063.22;5325036;28;20040;-71
2023/12/28 11:44:55;;;;;;;17.20;3.37;;;;;;;10.84;100.00;101056.56;5287424;28;20027;-71
2023/12/28 11:47:27;;;;;;;19.17;3.90;;;;;;;10.83;100.00;101052.25;5284811;28;20066;-70
2023/12/28 11:50:07;;;;;;;20.43;4.50;;;;;;;10.96;100.00;101059.41;5279618;28;20107;-70
2023/12/28 11:52:39;;;;;;;21.43;4.33;;;;;;;10.88;100.00;101052.00;5271816;28;20017;-70
2023/12/28 11:55:10;;;;;;;26.40;4.50;;;;;;;10.90;100.00;101042.28;5274413;28;20411;-71
2023/12/28 11:57:41;;;;;;;23.67;5.53;;;;;;;10.95;100.00;101042.00;5290176;28;20463;-71
2023/12/28 12:00:13;;;;;;;17.03;4.00;;;;;;;10.91;100.00;101037.88;5288617;28;20036;-72
2023/12/28 12:02:47;;;;;;;28.33;5.53;;;;;;;10.80;100.00;101047.22;5282338;28;20097;-72
2023/12/28 12:05:20;;;;;;;17.35;4.75;;;;;;;10.75;100.00;101041.38;5282649;28;20036;-70
2023/12/28 12:07:51;;;;;;;19.93;6.07;;;;;;;10.75;100.00;101041.38;5287362;28;20456;-70
2023/12/28 12:10:23;;;;;;;21.47;4.50;;;;;;;10.72;100.00;101036.31;5282548;28;20027;-70
2023/12/28 12:12:54;;;;;;;15.97;4.00;;;;;;;10.80;100.00;101036.72;5277195;28;20498;-70
2023/12/28 12:15:26;;;;;;;21.07;4.50;;;;;;;10.79;100.00;101035.03;5282822;28;20174;-71
2023/12/28 12:17:57;;;;;;;22.90;5.43;;;;;;;10.75;100.00;101023.06;5282385;28;20016;-70
2023/12/28 12:20:29;;;;;;;18.63;4.50;;;;;;;10.69;100.00;101026.00;5290085;28;20036;-70
2023/12/28 12:23:00;;;;;;;21.47;5.13;;;;;;;10.72;100.00;101023.19;5270765;28;20422;-70
2023/12/28 12:25:32;;;;;;;25.17;5.57;;;;;;;10.67;100.00;101025.25;5281715;28;20024;-70
2023/12/28 12:28:03;;;;;;;20.87;5.17;;;;;;;10.64;100.00;101008.81;5281017;28;20055;-71
2023/12/28 12:30:35;;;;;;;21.53;4.47;;;;;;;10.74;100.00;101008.25;5275144;28;20024;-70
2023/12/28 12:33:06;;;;;;;14.33;4.33;;;;;;;10.78;100.00;101009.75;5269598;28;20017;-70
2023/12/28 12:35:38;;;;;;;17.37;3.53;;;;;;;10.85;100.00;101007.63;5283584;28;20026;-71
2023/12/28 12:38:11;;;;;;;20.17;5.23;;;;;;;10.77;100.00;101002.81;5289030;28;20020;-71
2023/12/28 12:40:43;;;;;;;18.00;3.97;;;;;;;10.77;100.00;101005.44;5261643;28;20112;-70
2023/12/28 12:43:14;;;;;;;17.33;4.43;;;;;;;10.81;100.00;101009.59;5265888;28;20100;-70
2023/12/28 12:45:46;;;;;;;22.77;5.30;;;;;;;10.76;100.00;101009.00;5258295;28;20024;-71
2023/12/28 12:48:17;;;;;;;22.37;5.07;;;;;;;10.78;100.00;101017.63;5273174;28;20024;-70
2023/12/28 12:50:49;;;;;;;18.07;5.13;;;;;;;10.88;100.00;101010.91;5275735;28;20051;-70
2023/12/28 12:53:21;;;;;;;17.97;3.73;;;;;;;10.93;100.00;101012.41;5276557;28;20025;-71
2023/12/28 12:55:55;;;;;;;19.27;6.17;;;;;;;10.78;100.00;101015.00;5260346;28;20021;-68
2023/12/28 12:58:27;;;;;;;21.50;5.07;;;;;;;10.73;100.00;101017.06;5268195;28;20020;-69
2023/12/28 13:00:58;;;;;;;20.53;5.80;;;;;;;10.75;100.00;101023.06;5275103;28;20024;-70
2023/12/28 13:03:30;;;;;;;24.17;5.53;;;;;;;10.74;100.00;101006.47;5273063;28;20476;-69
2023/12/28 13:06:03;;;;;;;16.60;4.47;;;;;;;10.77;100.00;101005.44;5264511;28;20023;-69
2023/12/28 13:08:35;;;;;;;18.10;4.47;;;;;;;10.77;100.00;101002.81;5271604;28;20020;-73
2023/12/28 13:11:09;;;;;;;17.50;4.90;;;;;;;10.72;100.00;100994.38;5268585;28;20032;-67
2023/12/28 13:13:40;;;;;;;17.42;4.10;;;;;;;10.79;100.00;101005.38;5257615;28;20052;-69
2023/12/28 13:16:12;;;;;;;19.33;4.40;;;;;;;10.68;100.00;100982.41;5265522;28;20102;-70
2023/12/28 13:18:43;;;;;;;16.63;3.97;;;;;;;10.84;100.00;100998.91;5271050;28;20020;-70
2023/12/28 13:21:14;;;;;;;18.97;4.23;;;;;;;10.79;100.00;100993.09;5259759;28;20116;-72
2023/12/28 13:23:46;;;;;;;17.53;3.97;;;;;;;10.91;100.00;100995.94;5256352;28;20029;-71
2023/12/28 13:26:17;;;;;;;19.67;4.70;;;;;;;10.79;100.00;100989.66;5270118;28;20021;-72
2023/12/28 13:28:48;;;;;;;17.97;4.17;;;;;;;10.83;100.00;100981.53;5274480;28;20055;-69
2023/12/28 13:31:20;;;;;;;15.93;4.37;;;;;;;10.78;100.00;100988.81;5268477;28;20025;-71
2023/12/28 13:33:51;;;;;;;23.60;3.67;;;;;;;10.89;100.00;100983.75;5271230;28;20043;-71
2023/12/28 13:36:22;;;;;;;17.67;4.70;;;;;;;10.99;100.00;100981.47;5273297;28;20085;-71
2023/12/28 13:38:53;;;;;;;20.63;6.53;;;;;;;10.95;100.00;100968.63;5274102;28;20056;-71
2023/12/28 13:41:25;;;;;;;20.50;4.93;;;;;;;10.75;100.00;100957.56;5267637;28;20029;-74
2023/12/28 13:44:01;;;;;;;18.17;4.10;;;;;;;10.90;100.00;100961.03;5270092;28;20066;-74
2023/12/28 13:46:33;;;;;;;20.37;5.03;;;;;;;10.95;100.00;100969.47;5263603;28;20036;-74
2023/12/28 13:49:06;;;;;;;21.90;5.20;;;;;;;10.91;100.00;100961.88;5272450;28;20041;-74
2023/12/28 13:51:37;;;;;;;16.80;3.80;;;;;;;10.98;100.00;100965.81;5269075;28;20040;-74
2023/12/28 13:54:08;;;;;;;19.97;5.00;;;;;;;10.91;100.00;100965.34;5271018;28;20117;-74
2023/12/28 13:56:41;;;;;;;25.87;4.90;;;;;;;10.94;100.00;100961.69;5272726;28;20025;-73
2023/12/28 13:59:13;;;;;;;17.87;4.33;;;;;;;10.88;100.00;100948.03;5270582;28;20158;-74
2023/12/28 14:01:44;;;;;;;16.63;5.13;;;;;;;10.86;100.00;100965.63;5274608;28;20029;-73
2023/12/28 14:04:16;;;;;;;18.50;3.80;;;;;;;10.87;100.00;100967.28;5281422;28;20103;-72
2023/12/28 14:06:47;;;;;;;19.03;5.00;;;;;;;10.87;100.00;100976.94;5275846;28;20025;-72
2023/12/28 14:09:20;;;;;;;19.13;4.03;;;;;;;10.98;100.00;100968.44;5268974;28;20060;-73
2023/12/28 14:11:51;;;;;;;22.33;5.93;;;;;;;10.93;100.00;100981.81;5273565;28;20086;-72
2023/12/28 14:14:22;;;;;;;15.80;3.83;;;;;;;10.87;100.00;100977.78;5264124;28;20420;-72
2023/12/28 14:16:53;;;;;;;19.60;4.37;;;;;;;10.83;100.00;100972.81;5264422;28;20387;-71
2023/12/28 14:19:25;;;;;;;16.53;4.43;;;;;;;10.78;100.00;100978.34;5269971;28;20436;-72
2023/12/28 14:21:56;;;;;;;18.73;4.43;;;;;;;10.93;100.00;100978.34;5289123;28;20024;-73
2023/12/28 14:24:28;;;;;;;14.77;3.97;;;;;;;10.88;100.00;100968.13;5273997;28;20111;-73
2023/12/28 14:27:00;;;;;;;19.33;5.43;;;;;;;10.89;100.00;100967.22;5271723;28;20029;-73
2023/12/28 14:29:31;;;;;;;19.63;4.83;;;;;;;10.84;100.00;100977.13;5273214;28;20131;-73
2023/12/28 14:32:03;;;;;;;20.73;4.60;;;;;;;10.98;100.00;100957.94;5264147;28;20814;-73
2023/12/28 14:34:35;;;;;;;19.43;4.83;;;;;;;10.84;100.00;100967.47;5268206;28;20111;-73
2023/12/28 14:37:07;;;;;;;19.53;4.70;;;;;;;10.85;100.00;100970.94;5268612;28;20363;-74
2023/12/28 14:39:38;;;;;;;20.57;4.53;;;;;;;10.92;100.00;100971.44;5276710;28;20031;-74
2023/12/28 14:42:10;;;;;;;24.47;4.23;;;;;;;10.98;100.00;100984.16;5267231;28;20045;-73
2023/12/28 14:44:41;;;;;;;14.60;3.70;;;;;;;10.95;100.00;100977.31;5268377;28;20028;-73
2023/12/28 14:47:13;;;;;;;22.73;5.53;;;;;;;10.82;100.00;100971.13;5267847;28;20654;-73
2023/12/28 14:49:44;;;;;;;19.23;3.53;;;;;;;10.88;100.00;100974.22;5275811;28;20486;-73
2023/12/28 14:52:16;;;;;;;12.30;3.90;;;;;;;10.72;100.00;100960.34;5273565;28;20033;-73
2023/12/28 14:54:47;;;;;;;17.37;4.53;;;;;;;10.79;100.00;100963.47;5274134;28;20655;-72
2023/12/28 14:57:18;;;;;;;11.30;3.47;;;;;;;10.69;100.00;100957.91;5276534;28;20107;-72
2023/12/28 14:59:50;;;;;;;15.53;4.07;;;;;;;10.77;100.00;100972.25;5279924;28;20024;-72
2023/12/28 15:02:21;;;;;;;18.00;4.60;;;;;;;10.83;100.00;100978.06;5262366;28;20033;-71
2023/12/28 15:04:53;;;;;;;20.83;4.00;;;;;;;10.71;100.00;100963.91;5266488;28;20017;-71
2023/12/28 15:07:25;;;;;;;14.00;3.10;;;;;;;10.72;100.00;100971.66;5259129;28;20298;-71
2023/12/28 15:09:58;;;;;;;11.13;3.10;;;;;;;10.71;100.00;100966.53;5275758;28;20584;-71
2023/12/28 15:12:29;;;;;;;16.43;3.47;;;;;;;10.70;100.00;100964.84;5269353;28;20078;-71
2023/12/28 15:15:01;;;;;;;17.47;3.87;;;;;;;10.74;100.00;100961.09;5257111;28;20025;-71
2023/12/28 15:17:32;;;;;;;13.80;3.43;;;;;;;10.62;100.00;100968.75;5262264;28;20086;-71
2023/12/28 15:20:07;;;;;;;17.30;3.70;;;;;;;10.61;100.00;100964.44;5277589;28;20075;-71
2023/12/28 15:22:39;;;;;;;17.80;4.27;;;;;;;10.54;100.00;100963.13;5286991;28;20131;-71
2023/12/28 15:25:10;;;;;;;17.17;3.90;;;;;;;10.45;100.00;100972.31;5277415;28;20119;-72
2023/12/28 15:27:42;;;;;;;18.53;3.77;;;;;;;10.46;100.00;100960.91;5269176;28;20055;-71
2023/12/28 15:30:13;;;;;;;16.43;4.30;;;;;;;10.56;100.00;100955.16;5280185;28;20548;-71
2023/12/28 15:32:45;;;;;;;18.80;4.90;;;;;;;10.50;100.00;100953.75;5265138;28;20028;-71
2023/12/28 15:35:17;;;;;;;24.30;4.67;;;;;;;10.45;100.00;100956.59;5270496;28;20118;-71
2023/12/28 15:37:50;;;;;;;13.47;3.27;;;;;;;10.44;100.00;100949.66;5278809;28;20043;-71
2023/12/28 15:40:22;;;;;;;18.40;4.30;;;;;;;10.53;100.00;100959.66;5270789;28;20224;-71
2023/12/28 15:42:53;;;;;;;14.43;2.60;;;;;;;10.46;100.00;100949.56;5271806;28;20024;-72
2023/12/28 15:45:26;;;;;;;18.00;4.57;;;;;;;10.40;100.00;100948.16;5260287;28;20039;-71
2023/12/28 15:47:58;;;;;;;16.00;4.87;;;;;;;10.39;100.00;100951.69;5272228;28;20032;-71
2023/12/28 15:50:29;;;;;;;13.63;3.27;;;;;;;10.36;100.00;100950.13;5267197;28;20021;-72
2023/12/28 15:53:00;;;;;;;12.70;3.70;;;;;;;10.44;100.00;100959.31;5271996;28;20475;-72
2023/12/28 15:55:32;;;;;;;14.70;3.57;;;;;;;10.42;100.00;100946.28;5273847;28;20045;-72
2023/12/28 15:58:03;;;;;;;16.47;3.53;;;;;;;10.39;100.00;100939.47;5290046;28;20055;-72
2023/12/28 16:00:35;;;;;;;12.73;3.90;;;;;;;10.41;100.00;100950.69;5272544;28;20021;-72
2023/12/28 16:03:06;;;;;;;15.83;4.03;;;;;;;10.41;100.00;100950.69;5271593;28;20509;-72
2023/12/28 16:05:37;;;;;;;24.07;4.03;;;;;;;10.40;100.00;100943.75;5276261;28;20482;-72
2023/12/28 16:08:09;;;;;;;13.73;3.57;;;;;;;10.37;100.00;100937.84;5273411;28;20107;-72
2023/12/28 16:10:40;;;;;;;16.20;3.87;;;;;;;10.44;100.00;100927.91;5274554;28;20029;-72
2023/12/28 16:13:11;;;;;;;21.80;5.37;;;;;;;10.43;100.00;100941.91;5268226;28;20055;-72
2023/12/28 16:15:43;;;;;;;22.40;3.93;;;;;;;10.35;100.00;100939.75;5286001;28;20052;-72
2023/12/28 16:18:15;;;;;;;15.83;3.87;;;;;;;10.34;100.00;100928.41;5266398;28;20074;-73
2023/12/28 16:20:46;;;;;;;12.07;3.63;;;;;;;10.49;100.00;100944.22;5278966;28;20497;-73
2023/12/28 16:23:18;;;;;;;17.60;4.07;;;;;;;10.33;100.00;100936.34;5270685;28;20031;-73
2023/12/28 16:25:49;;;;;;;16.33;3.97;;;;;;;10.41;100.00;100924.50;5282818;28;20024;-73
2023/12/28 16:28:21;;;;;;;18.77;3.83;;;;;;;10.34;100.00;100938.03;5269998;28;20499;-75
2023/12/28 16:30:52;;;;;;;21.37;4.80;;;;;;;10.29;100.00;100927.84;5275223;28;20067;-74
2023/12/28 16:33:24;;;;;;;13.90;4.00;;;;;;;10.38;100.00;100923.84;5274927;28;20036;-73
2023/12/28 16:35:56;;;;;;;9.57;2.83;;;;;;;10.38;100.00;100924.69;5276385;28;20645;-74
2023/12/28 16:38:27;;;;;;;16.37;3.83;;;;;;;10.36;100.00;100923.09;5271877;28;20028;-73
2023/12/28 16:40:59;;;;;;;15.50;3.77;;;;;;;10.34;100.00;100927.56;5280839;28;20027;-74
2023/12/28 16:43:32;;;;;;;14.17;4.57;;;;;;;10.32;100.00;100924.19;5269354;28;20033;-73
2023/12/28 16:46:04;;;;;;;16.17;2.87;;;;;;;10.31;100.00;100923.38;5271686;28;20048;-73
2023/12/28 16:48:37;;;;;;;14.07;3.93;;;;;;;10.31;100.00;100918.13;5266750;28;20028;-73
2023/12/28 16:51:09;;;;;;;15.67;3.47;;;;;;;10.34;100.00;100928.41;5267392;28;20364;-75
2023/12/28 16:53:40;;;;;;;13.50;3.57;;;;;;;10.24;100.00;100915.03;5277388;28;20033;-74
2023/12/28 16:56:12;;;;;;;14.47;3.00;;;;;;;10.41;100.00;100928.91;5273527;28;20031;-73
2023/12/28 16:58:43;;;;;;;12.47;3.00;;;;;;;10.26;100.00;100914.94;5280244;28;20020;-75
2023/12/28 17:01:14;;;;;;;15.63;3.93;;;;;;;10.23;100.00;100915.09;5271419;28;20025;-71
2023/12/28 17:03:45;;;;;;;21.03;3.30;;;;;;;10.20;100.00;100918.72;5274101;28;20137;-73
2023/12/28 17:06:17;;;;;;;12.07;3.83;;;;;;;10.13;100.00;100907.78;5260895;28;20029;-73
2023/12/28 17:08:48;;;;;;;16.33;3.70;;;;;;;10.16;100.00;100923.28;5271236;28;20043;-73
2023/12/28 17:11:20;;;;;;;17.77;4.57;;;;;;;10.20;100.00;100916.13;5266667;28;20036;-73
2023/12/28 17:13:52;;;;;;;14.50;3.53;;;;;;;10.12;100.00;100908.69;5267482;28;20020;-71
2023/12/28 17:16:23;;;;;;;18.90;3.93;;;;;;;10.22;100.00;100922.13;5270514;28;20024;-71
2023/12/28 17:18:54;;;;;;;14.50;4.07;;;;;;;10.18;100.00;100925.81;5273784;28;20028;-72
2023/12/28 17:21:30;;;;;;;17.97;4.47;;;;;;;10.26;100.00;100912.31;5257979;28;20017;-72
2023/12/28 17:24:05;;;;;;;12.67;3.67;;;;;;;10.16;100.00;100907.59;5273127;28;20102;-72
2023/12/28 17:26:46;;;;;;;15.87;4.13;;;;;;;10.27;100.00;100909.59;5280202;28;20493;-72
2023/12/28 17:29:17;;;;;;;18.33;3.93;;;;;;;10.14;100.00;100898.16;5269546;28;20123;-72
2023/12/28 17:31:50;;;;;;;14.30;3.67;;;;;;;10.11;100.00;100904.41;5272408;28;20578;-73
2023/12/28 17:34:21;;;;;;;11.97;3.83;;;;;;;10.12;100.00;100910.47;5271666;28;20033;-73
2023/12/28 17:36:53;;;;;;;15.90;3.87;;;;;;;10.13;100.00;100910.41;5264466;28;20056;-73
2023/12/28 17:39:25;;;;;;;13.83;3.73;;;;;;;10.12;100.00;100905.25;5278736;28;20072;-73
2023/12/28 17:41:58;;;;;;;14.53;4.20;;;;;;;10.20;100.00;100904.78;5276163;28;20039;-71
2023/12/28 17:44:36;;;;;;;12.67;3.83;;;;;;;10.20;100.00;100917.88;5275183;28;20052;-71
2023/12/28 17:47:24;;;;;;;19.10;3.20;;;;;;;10.17;100.00;100905.81;5276793;28;20029;-71
2023/12/28 17:49:58;;;;;;;12.53;3.33;;;;;;;10.16;100.00;100904.13;5279090;28;20035;-71
2023/12/28 17:52:32;;;;;;;19.13;5.22;;;;;;;10.21;100.00;100896.03;5271807;28;20031;-72
2023/12/28 17:55:03;;;;;;;10.80;4.13;;;;;;;10.17;100.00;100892.75;5258043;28;20036;-72
2023/12/28 17:57:35;;;;;;;16.10;3.43;;;;;;;10.32;100.00;100887.53;5269614;28;20327;-75
2023/12/28 18:00:06;;;;;;;13.70;3.00;;;;;;;10.23;100.00;100897.63;5252187;28;20036;-74
2023/12/28 18:02:38;;;;;;;13.60;2.60;;;;;;;10.32;100.00;100882.28;5271973;28;20025;-77
2023/12/28 18:05:09;;;;;;;15.90;3.27;;;;;;;10.26;100.00;100884.34;5265433;28;20017;-72
2023/12/28 18:07:41;;;;;;;13.97;4.27;;;;;;;10.37;100.00;100896.81;5268156;28;20064;-78
2023/12/28 18:10:13;;;;;;;13.00;3.53;;;;;;;10.25;100.00;100895.75;5261978;28;20025;-77
2023/12/28 18:12:44;;;;;;;15.77;2.77;;;;;;;10.27;100.00;100890.44;5264071;28;20027;-72
2023/12/28 18:15:16;;;;;;;14.23;3.07;;;;;;;10.32;100.00;100885.78;5270188;28;20056;-72
2023/12/28 18:17:47;;;;;;;16.27;3.33;;;;;;;10.29;100.00;100899.91;5261622;28;20029;-71
2023/12/28 18:20:18;;;;;;;12.67;3.40;;;;;;;10.24;100.00;100880.16;5269625;28;20029;-72
2023/12/28 18:22:49;;;;;;;9.20;2.97;;;;;;;10.27;100.00;100895.66;5265603;28;20032;-71
2023/12/28 18:25:21;;;;;;;18.03;3.77;;;;;;;10.26;100.00;100886.13;5259902;28;20102;-72
2023/12/28 18:27:52;;;;;;;16.27;4.20;;;;;;;10.20;100.00;100899.56;5252880;28;20052;-71
2023/12/28 18:30:24;;;;;;;13.53;3.03;;;;;;;10.30;100.00;100905.94;5271475;28;20411;-74
2023/12/28 18:32:55;;;;;;;14.07;2.83;;;;;;;10.30;100.00;100911.19;5274894;28;20040;-77
2023/12/28 18:35:26;;;;;;;12.20;2.27;;;;;;;10.36;100.00;100889.91;5275404;28;20133;-73
2023/12/28 18:37:58;;;;;;;17.17;3.37;;;;;;;10.25;100.00;100876.59;5278303;28;20037;-73
2023/12/28 18:40:29;;;;;;;15.43;3.40;;;;;;;10.32;100.00;100893.63;5274455;28;20075;-73
2023/12/28 18:43:00;;;;;;;14.43;2.80;;;;;;;10.35;100.00;100888.19;5273061;28;20029;-73
2023/12/28 18:45:31;;;;;;;13.10;3.17;;;;;;;10.37;100.00;100882.88;5272132;28;20028;-74
2023/12/28 18:48:04;;;;;;;12.57;2.87;;;;;;;10.28;100.00;100908.66;5273494;28;20043;-72
2023/12/28 18:50:35;;;;;;;11.33;3.80;;;;;;;10.38;100.00;100898.53;5273318;28;20032;-73
2023/12/28 18:53:08;;;;;;;10.97;2.87;;;;;;;10.34;100.00;100902.25;5274364;28;20543;-73
2023/12/28 18:55:41;;;;;;;11.93;3.20;;;;;;;10.33;100.00;100897.09;5274259;28;20073;-72
2023/12/28 18:58:12;;;;;;;13.90;3.70;;;;;;;10.41;100.00;100895.72;5274785;28;20020;-72
2023/12/28 19:00:44;;;;;;;11.83;2.90;;;;;;;10.43;100.00;100884.28;5273268;28;20100;-72
2023/12/28 19:03:15;;;;;;;12.60;3.90;;;;;;;10.38;100.00;100893.28;5274553;28;20474;-72
2023/12/28 19:05:46;;;;;;;10.03;2.33;;;;;;;10.39;100.00;100904.56;5273062;28;20039;-72
2023/12/28 19:08:17;;;;;;;14.07;2.70;;;;;;;10.44;100.00;100891.25;5273745;28;20036;-70
2023/12/28 19:10:49;;;;;;;11.77;3.00;;;;;;;10.37;100.00;100901.19;5272388;28;20031;-71
2023/12/28 19:13:20;;;;;;;13.97;5.13;;;;;;;10.44;100.00;100899.09;5272879;28;20036;-73
2023/12/28 19:15:51;;;;;;;10.63;2.67;;;;;;;10.34;100.00;100886.53;5272067;28;20050;-72
2023/12/28 19:18:22;;;;;;;11.57;2.30;;;;;;;10.33;100.00;100879.63;5273812;28;20020;-72
2023/12/28 19:20:54;;;;;;;9.77;3.57;;;;;;;10.35;100.00;100882.97;5274855;28;20024;-72
2023/12/28 19:23:25;;;;;;;11.27;3.63;;;;;;;10.33;100.00;100877.00;5273424;28;20024;-72
2023/12/28 19:25:57;;;;;;;11.83;4.33;;;;;;;10.28;100.00;100876.44;5274299;28;20043;-71
2023/12/28 19:28:28;;;;;;;12.90;3.93;;;;;;;10.46;100.00;100865.78;5271528;28;20113;-71
2023/12/28 19:30:59;;;;;;;10.93;3.07;;;;;;;10.32;100.00;100870.06;5271495;28;20067;-71
2023/12/28 19:33:31;;;;;;;12.23;3.33;;;;;;;10.29;100.00;100868.47;5273524;28;20037;-72
2023/12/28 19:36:02;;;;;;;10.87;3.10;;;;;;;10.27;100.00;100869.50;5264811;28;20041;-72
2023/12/28 19:38:33;;;;;;;10.87;2.57;;;;;;;10.29;100.00;100868.47;5272656;28;20107;-70
2023/12/28 19:41:05;;;;;;;9.80;3.17;;;;;;;10.27;100.00;100859.00;5274127;28;20028;-72
2023/12/28 19:43:36;;;;;;;12.70;3.17;;;;;;;10.12;100.00;100848.50;5271895;28;20036;-72
2023/12/28 19:46:07;;;;;;;14.67;4.20;;;;;;;10.35;100.00;100850.72;5273067;28;20130;-71
2023/12/28 19:48:40;;;;;;;10.60;2.90;;;;;;;10.34;100.00;100854.25;5273876;28;20082;-72
2023/12/28 19:51:11;;;;;;;13.57;3.10;;;;;;;10.17;100.00;100849.06;5277454;28;20016;-72
2023/12/28 19:53:43;;;;;;;12.77;2.93;;;;;;;10.12;100.00;100845.88;5277879;28;20032;-72
2023/12/28 19:56:14;;;;;;;15.30;3.73;;;;;;;10.14;100.00;100848.44;5276992;28;20032;-73
2023/12/28 19:58:45;;;;;;;12.40;3.73;;;;;;;10.26;100.00;100841.63;5275771;28;20032;-73
2023/12/28 20:01:17;;;;;;;8.57;2.40;;;;;;;10.14;100.00;100846.63;5276107;28;20043;-72
2023/12/28 20:03:48;;;;;;;10.67;3.73;;;;;;;10.20;100.00;100853.31;5277844;28;20090;-73
2023/12/28 20:06:20;;;;;;;17.13;3.67;;;;;;;10.20;100.00;100845.44;5276755;28;20433;-73
2023/12/28 20:08:51;;;;;;;13.60;3.23;;;;;;;10.13;100.00;100847.59;5275236;28;20127;-73
2023/12/28 20:11:22;;;;;;;12.30;3.43;;;;;;;10.22;100.00;100825.28;5276474;28;20039;-73
2023/12/28 20:13:54;;;;;;;10.93;2.63;;;;;;;10.09;100.00;100809.44;5275920;28;20059;-73
2023/12/28 20:16:25;;;;;;;8.37;2.90;;;;;;;10.10;100.00;100831.22;5273790;28;20032;-73
2023/12/28 20:18:59;;;;;;;10.23;2.73;;;;;;;10.10;100.00;100818.13;5274740;28;20037;-74
2023/12/28 20:21:30;;;;;;;11.65;3.08;;;;;;;10.15;100.00;100824.78;5276653;28;20040;-74
2023/12/28 20:24:02;;;;;;;11.73;2.60;;;;;;;10.06;100.00;100820.09;5275462;28;20027;-74
2023/12/28 20:26:34;;;;;;;8.93;2.50;;;;;;;10.13;100.00;100820.56;5273178;28;20055;-74
2023/12/28 20:29:05;;;;;;;12.93;3.27;;;;;;;10.24;100.00;100814.72;5270066;28;20033;-72
2023/12/28 20:31:37;;;;;;;10.27;3.30;;;;;;;10.08;100.00;100817.38;5274490;28;20032;-72
2023/12/28 20:34:08;;;;;;;9.50;3.40;;;;;;;10.28;100.00;100822.28;5275908;28;20483;-72
2023/12/28 20:36:41;;;;;;;12.93;2.47;;;;;;;10.11;100.00;100811.94;5275991;28;20073;-72
2023/12/28 20:39:12;;;;;;;12.37;3.90;;;;;;;10.11;100.00;100822.41;5276619;28;20017;-73
2023/12/28 20:41:43;;;;;;;9.03;3.70;;;;;;;10.07;100.00;100813.91;5279573;28;20732;-74
2023/12/28 20:44:15;;;;;;;10.73;3.17;;;;;;;10.05;100.00;100808.75;5275219;28;20024;-72
2023/12/28 20:46:47;;;;;;;10.07;2.70;;;;;;;10.06;100.00;100809.63;5273934;28;20029;-71
2023/12/28 20:49:18;;;;;;;9.27;2.33;;;;;;;10.19;100.00;100798.44;5272102;28;20080;-74
2023/12/28 20:51:49;;;;;;;10.33;3.53;;;;;;;10.15;100.00;100801.22;5277036;28;20036;-74
2023/12/28 20:54:22;;;;;;;10.27;3.03;;;;;;;10.11;100.00;100801.47;5275002;28;20047;-74
2023/12/28 20:56:53;;;;;;;10.90;3.33;;;;;;;10.15;100.00;100800.38;5276360;28;20035;-74
2023/12/28 20:59:24;;;;;;;11.30;2.47;;;;;;;10.10;100.00;100791.97;5276505;28;20040;-74
2023/12/28 21:01:56;;;;;;;12.07;3.03;;;;;;;10.07;100.00;100808.66;5262865;28;20427;-74
2023/12/28 21:04:27;;;;;;;9.07;2.17;;;;;;;10.09;100.00;100803.38;5274497;28;20100;-73
2023/12/28 21:06:58;;;;;;;16.60;3.47;;;;;;;10.07;100.00;100797.38;5276290;28;20063;-73
2023/12/28 21:09:29;;;;;;;13.20;2.97;;;;;;;10.11;100.00;100806.72;5275758;28;20040;-73
2023/12/28 21:12:01;;;;;;;12.47;3.53;;;;;;;10.07;100.00;100808.66;5275979;28;20037;-74
2023/12/28 21:14:39;;;;;;;9.83;2.67;;;;;;;10.11;100.00;100809.34;5274604;28;20111;-73
2023/12/28 21:17:10;;;;;;;18.23;4.40;;;;;;;10.15;100.00;100803.84;5275834;28;20557;-73
2023/12/28 21:19:41;;;;;;;5.70;2.37;;;;;;;10.22;100.00;100795.63;5276443;28;20048;-74
2023/12/28 21:22:13;;;;;;;12.90;4.10;;;;;;;10.22;100.00;100819.19;5274298;28;20031;-74
2023/12/28 21:24:44;;;;;;;7.47;2.70;;;;;;;10.25;100.00;100801.53;5275441;28;20103;-74
2023/12/28 21:27:15;;;;;;;10.20;2.70;;;;;;;10.24;100.00;100785.91;5273777;28;20029;-74
2023/12/28 21:29:46;;;;;;;13.30;3.07;;;;;;;10.14;100.00;100775.16;5274433;28;20028;-74
2023/12/28 21:32:19;;;;;;;9.17;2.20;;;;;;;10.31;100.00;100786.38;5270044;28;20032;-74
2023/12/28 21:34:51;;;;;;;10.67;2.17;;;;;;;10.29;100.00;100799.56;5275987;28;20518;-71
2023/12/28 21:37:22;;;;;;;8.87;3.20;;;;;;;10.45;100.00;100793.41;5275601;28;20067;-72
2023/12/28 21:39:53;;;;;;;14.50;3.20;;;;;;;10.35;100.00;100793.94;5276439;28;20077;-73
2023/12/28 21:42:25;;;;;;;11.03;3.27;;;;;;;10.28;100.00;100774.34;5275558;28;20059;-73
2023/12/28 21:44:59;;;;;;;6.93;2.10;;;;;;;10.29;100.00;100779.47;5275557;28;20081;-74
2023/12/28 21:47:30;;;;;;;15.05;2.85;;;;;;;10.20;100.00;100780.03;5275235;28;20025;-72
2023/12/28 21:50:04;;;;;;;11.73;3.10;;;;;;;10.36;100.00;100774.72;5275397;28;20023;-72
2023/12/28 21:52:36;;;;;;;12.27;2.55;;;;;;;10.26;100.00;100779.63;5274827;28;20108;-72
2023/12/28 21:55:08;;;;;;;11.63;2.63;;;;;;;10.25;100.00;100770.13;5277742;28;20108;-73
2023/12/28 21:57:40;;;;;;;14.93;3.07;;;;;;;10.27;100.00;100783.97;5275094;28;20024;-72
2023/12/28 22:00:12;;;;;;;10.83;2.60;;;;;;;10.40;100.00;100773.56;5273773;28;20035;-72
2023/12/28 22:02:43;;;;;;;8.20;2.40;;;;;;;10.35;100.00;100788.72;5273091;28;20024;-73
2023/12/28 22:05:14;;;;;;;15.20;3.03;;;;;;;10.20;100.00;100790.50;5273425;28;20020;-72
